Time;durP1;ratioP1;P1;durP2;ratioP2;P2;SDS_P1;SDS_P2;PMS_P1;PMS_P2;Temp;Humidity;BMP_temperature;BMP_pressure;BME280_temperature;BME280_humidity;BME280_pressure;Samples;Min_cycle;Max_cycle;Signal;HPM_P1;HPM_P2
2024/04/22 00:00:28;;;;;;;;;;;6.90;99.90;;;;;;5420144;26;20017;-74
2024/04/22 00:02:53;;;;;;;;;;;7.00;99.90;;;;;;5452168;26;19932;-73
2024/04/22 00:05:20;;;;;;;;;;;7.00;99.90;;;;;;5453287;26;20005;-75
2024/04/22 00:07:46;;;;;;;;;;;7.00;99.90;;;;;;5454819;26;19925;-77
2024/04/22 00:10:12;;;;;;;;;;;7.00;99.90;;;;;;5421290;26;19989;-73
2024/04/22 00:12:37;;;;;;;;;;;7.00;99.90;;;;;;5455569;26;19924;-73
2024/04/22 00:15:03;;;;;;;;;;;7.10;99.90;;;;;;5457416;26;19931;-73
2024/04/22 00:17:28;;;;;;;;;;;7.10;99.90;;;;;;5452998;26;19931;-74
2024/04/22 00:19:54;;;;;;;;;;;7.10;99.90;;;;;;5451748;26;19964;-73
2024/04/22 00:22:19;;;;;;;;;;;7.00;99.90;;;;;;5420015;26;19924;-73
2024/04/22 00:24:45;;;;;;;;;;;7.00;99.90;;;;;;5451464;26;19955;-73
2024/04/22 00:27:10;;;;;;;;;;;7.00;99.90;;;;;;5419704;26;19925;-73
2024/04/22 00:29:36;;;;;;;;;;;7.00;99.90;;;;;;5451539;26;19925;-75
2024/04/22 00:32:02;;;;;;;;;;;7.00;99.90;;;;;;5452209;26;19925;-73
2024/04/22 00:34:27;;;;;;;;;;;7.00;99.90;;;;;;5419462;26;19928;-74
2024/04/22 00:36:53;;;;;;;;;;;7.00;99.90;;;;;;5449790;26;19993;-74
2024/04/22 00:39:18;;;;;;;;;;;7.00;99.90;;;;;;5449578;26;19956;-74
2024/04/22 00:41:44;;;;;;;;;;;6.90;99.90;;;;;;5450881;26;20345;-73
2024/04/22 00:44:10;;;;;;;;;;;6.90;99.90;;;;;;5419282;26;20297;-74
2024/04/22 00:46:35;;;;;;;;;;;6.90;99.90;;;;;;5451250;26;19924;-73
2024/04/22 00:49:01;;;;;;;;;;;6.90;99.90;;;;;;5451271;26;19931;-74
2024/04/22 00:51:27;;;;;;;;;;;6.90;99.90;;;;;;5419329;26;19924;-73
2024/04/22 00:53:53;;;;;;;;;;;6.90;99.90;;;;;;5419559;26;19931;-74
2024/04/22 00:56:19;;;;;;;;;;;6.80;99.90;;;;;;5450623;26;20277;-73
2024/04/22 00:58:46;;;;;;;;;;;6.80;99.90;;;;;;5451208;26;20349;-74
2024/04/22 01:01:12;;;;;;;;;;;6.80;99.90;;;;;;5451114;26;19930;-74
2024/04/22 01:03:38;;;;;;;;;;;6.80;99.90;;;;;;5419282;26;19944;-73
2024/04/22 01:06:03;;;;;;;;;;;6.80;99.90;;;;;;5448844;26;19934;-74
2024/04/22 01:08:29;;;;;;;;;;;6.80;99.90;;;;;;5450896;26;20599;-73
2024/04/22 01:10:55;;;;;;;;;;;6.80;99.90;;;;;;5450830;26;19964;-73
2024/04/22 01:13:20;;;;;;;;;;;6.80;99.90;;;;;;5450796;26;19924;-74
2024/04/22 01:15:46;;;;;;;;;;;6.80;99.90;;;;;;5450586;26;19925;-74
2024/04/22 01:18:15;;;;;;;;;;;6.80;99.90;;;;;;5450645;26;19993;-74
2024/04/22 01:20:41;;;;;;;;;;;6.80;99.90;;;;;;5450807;26;19932;-74
2024/04/22 01:23:07;;;;;;;;;;;6.80;99.90;;;;;;5418523;26;20647;-71
2024/04/22 01:25:34;;;;;;;;;;;6.80;99.90;;;;;;5450585;26;19925;-73
2024/04/22 01:28:00;;;;;;;;;;;6.80;99.90;;;;;;5450766;26;19932;-73
2024/04/22 01:30:25;;;;;;;;;;;6.80;99.90;;;;;;5450367;26;19928;-74
2024/04/22 01:32:51;;;;;;;;;;;6.80;99.90;;;;;;5450633;26;19956;-73
2024/04/22 01:35:16;;;;;;;;;;;6.80;99.90;;;;;;5450248;26;19931;-73
2024/04/22 01:37:42;;;;;;;;;;;6.80;99.90;;;;;;5450462;26;19925;-73
2024/04/22 01:40:08;;;;;;;;;;;6.90;99.90;;;;;;5448390;26;19967;-74
2024/04/22 01:42:33;;;;;;;;;;;6.80;99.90;;;;;;5450754;26;19969;-73
2024/04/22 01:44:59;;;;;;;;;;;6.90;99.90;;;;;;5450372;26;19996;-73
2024/04/22 01:47:25;;;;;;;;;;;6.90;99.90;;;;;;5450370;26;20418;-74
2024/04/22 01:49:50;;;;;;;;;;;6.80;99.90;;;;;;5448392;26;20357;-73
2024/04/22 01:52:16;;;;;;;;;;;6.80;99.90;;;;;;5448222;26;19925;-73
2024/04/22 01:54:41;;;;;;;;;;;6.80;99.90;;;;;;5422069;26;19949;-77
2024/04/22 01:57:07;;;;;;;;;;;6.80;99.90;;;;;;5455529;26;19932;-74
2024/04/22 01:59:32;;;;;;;;;;;6.80;99.90;;;;;;5456030;26;20456;-76
2024/04/22 02:01:58;;;;;;;;;;;6.90;99.90;;;;;;5452117;26;20254;-73
2024/04/22 02:04:23;;;;;;;;;;;6.90;99.90;;;;;;5450465;26;19931;-73
2024/04/22 02:06:49;;;;;;;;;;;6.80;99.90;;;;;;5449560;26;19924;-73
2024/04/22 02:09:14;;;;;;;;;;;6.80;99.90;;;;;;5448128;26;20254;-73
2024/04/22 02:11:40;;;;;;;;;;;6.80;99.90;;;;;;5449937;26;20364;-74
2024/04/22 02:14:05;;;;;;;;;;;6.80;99.90;;;;;;5450002;26;19939;-73
2024/04/22 02:16:31;;;;;;;;;;;6.80;99.90;;;;;;5418092;26;19932;-73
2024/04/22 02:18:57;;;;;;;;;;;6.80;99.90;;;;;;5449824;26;19924;-73
2024/04/22 02:21:26;;;;;;;;;;;6.70;99.90;;;;;;5449852;26;19925;-73
2024/04/22 02:23:52;;;;;;;;;;;6.70;99.90;;;;;;5449849;26;19939;-73
2024/04/22 02:26:18;;;;;;;;;;;6.70;99.90;;;;;;5449577;26;19925;-74
2024/04/22 02:28:43;;;;;;;;;;;6.70;99.90;;;;;;5448011;26;19925;-74
2024/04/22 02:31:09;;;;;;;;;;;6.70;99.90;;;;;;5448032;26;19932;-74
2024/04/22 02:33:34;;;;;;;;;;;6.70;99.90;;;;;;5450520;26;19994;-74
2024/04/22 02:36:00;;;;;;;;;;;6.70;99.90;;;;;;5421502;26;19992;-74
2024/04/22 02:38:25;;;;;;;;;;;6.70;99.90;;;;;;5421336;26;19931;-74
2024/04/22 02:40:51;;;;;;;;;;;6.70;99.90;;;;;;5453118;26;19924;-73
2024/04/22 02:43:16;;;;;;;;;;;6.70;99.90;;;;;;5452878;26;19990;-74
2024/04/22 02:45:42;;;;;;;;;;;6.70;99.90;;;;;;5452924;26;19931;-74
2024/04/22 02:48:07;;;;;;;;;;;6.60;99.90;;;;;;5453044;26;20343;-74
2024/04/22 02:50:33;;;;;;;;;;;6.60;99.90;;;;;;5421168;26;20454;-73
2024/04/22 02:52:59;;;;;;;;;;;6.60;99.90;;;;;;5452880;26;19926;-73
2024/04/22 02:55:28;;;;;;;;;;;6.60;99.90;;;;;;5453168;26;19953;-73
2024/04/22 02:57:57;;;;;;;;;;;6.60;99.90;;;;;;5453042;26;19925;-74
2024/04/22 03:00:23;;;;;;;;;;;6.60;99.90;;;;;;5452802;26;19932;-74
2024/04/22 03:02:48;;;;;;;;;;;6.60;99.90;;;;;;5452559;26;20272;-73
2024/04/22 03:05:14;;;;;;;;;;;6.60;99.90;;;;;;5453093;26;19936;-73
2024/04/22 03:07:39;;;;;;;;;;;6.60;99.90;;;;;;5452368;26;19936;-74
2024/04/22 03:10:05;;;;;;;;;;;6.60;99.90;;;;;;5420780;26;20562;-74
2024/04/22 03:12:32;;;;;;;;;;;6.60;99.90;;;;;;5452670;26;19924;-74
2024/04/22 03:14:58;;;;;;;;;;;6.60;99.90;;;;;;5452921;26;19925;-73
2024/04/22 03:17:24;;;;;;;;;;;6.60;99.90;;;;;;5455834;26;19990;-74
2024/04/22 03:19:50;;;;;;;;;;;6.60;99.90;;;;;;5457386;26;19966;-76
2024/04/22 03:22:15;;;;;;;;;;;6.60;99.90;;;;;;5452155;26;20064;-73
2024/04/22 03:24:41;;;;;;;;;;;6.60;99.90;;;;;;5457962;26;19936;-74
2024/04/22 03:27:07;;;;;;;;;;;6.60;99.90;;;;;;5458485;26;20430;-78
2024/04/22 03:29:32;;;;;;;;;;;6.60;99.90;;;;;;5454430;26;19937;-73
2024/04/22 03:31:58;;;;;;;;;;;6.60;99.90;;;;;;5452388;26;20369;-73
2024/04/22 03:34:23;;;;;;;;;;;6.60;99.90;;;;;;5452645;26;20257;-74
2024/04/22 03:36:49;;;;;;;;;;;6.60;99.90;;;;;;5452185;26;20354;-74
2024/04/22 03:39:14;;;;;;;;;;;6.60;99.90;;;;;;5450086;26;20372;-73
2024/04/22 03:41:40;;;;;;;;;;;6.70;99.90;;;;;;5451624;26;19924;-72
2024/04/22 03:44:05;;;;;;;;;;;6.60;99.90;;;;;;5451858;26;19924;-74
2024/04/22 03:51:59;;;;;;;;;;;6.60;99.90;;;;;;5453120;26;20523;-74
2024/04/22 03:54:25;;;;;;;;;;;6.60;99.90;;;;;;5451748;26;20678;-73
2024/04/22 03:56:50;;;;;;;;;;;6.60;99.90;;;;;;5452096;26;19925;-74
2024/04/22 03:59:16;;;;;;;;;;;6.60;99.90;;;;;;5452133;26;19965;-73
2024/04/22 04:01:42;;;;;;;;;;;6.60;99.90;;;;;;5452328;26;19993;-73
2024/04/22 04:04:09;;;;;;;;;;;6.60;99.90;;;;;;5452230;26;19939;-73
2024/04/22 04:06:34;;;;;;;;;;;6.60;99.90;;;;;;5450402;26;20260;-74
2024/04/22 04:09:00;;;;;;;;;;;6.60;99.90;;;;;;5452251;26;20310;-74
2024/04/22 04:11:33;;;;;;;;;;;6.60;99.90;;;;;;5450114;26;19925;-74
2024/04/22 04:13:59;;;;;;;;;;;6.50;99.90;;;;;;5451916;26;19925;-73
2024/04/22 04:16:26;;;;;;;;;;;6.50;99.90;;;;;;5451483;26;19932;-73
2024/04/22 04:18:51;;;;;;;;;;;6.50;99.90;;;;;;5451733;26;19993;-74
2024/04/22 04:21:17;;;;;;;;;;;6.60;99.90;;;;;;5451897;26;19928;-74
2024/04/22 04:23:42;;;;;;;;;;;6.60;99.90;;;;;;5449778;26;19932;-74
2024/04/22 04:26:08;;;;;;;;;;;6.70;99.90;;;;;;5451379;26;19993;-72
2024/04/22 04:28:33;;;;;;;;;;;6.60;99.90;;;;;;5453353;26;20013;-78
2024/04/22 04:30:59;;;;;;;;;;;6.70;99.90;;;;;;5457785;26;19932;-74
2024/04/22 04:33:25;;;;;;;;;;;6.70;99.90;;;;;;5454422;26;20342;-72
2024/04/22 04:35:57;;;;;;;;;;;6.80;99.90;;;;;;5451732;26;20007;-73
2024/04/22 04:38:23;;;;;;;;;;;6.70;99.90;;;;;;5451454;26;19924;-73
2024/04/22 04:40:48;;;;;;;;;;;6.70;99.90;;;;;;5419081;26;19931;-72
2024/04/22 04:43:14;;;;;;;;;;;6.80;99.90;;;;;;5419384;26;19925;-74
2024/04/22 04:45:39;;;;;;;;;;;6.80;99.90;;;;;;5449515;26;19924;-75
2024/04/22 04:48:05;;;;;;;;;;;6.80;99.90;;;;;;5419570;26;19924;-72
2024/04/22 04:50:30;;;;;;;;;;;6.80;99.90;;;;;;5451306;26;19925;-72
2024/04/22 04:52:56;;;;;;;;;;;6.80;99.90;;;;;;5450990;26;19931;-73
2024/04/22 04:55:21;;;;;;;;;;;6.80;99.90;;;;;;5449346;26;19937;-73
2024/04/22 04:57:47;;;;;;;;;;;6.80;99.90;;;;;;5442575;26;19925;-73
2024/04/22 05:00:12;;;;;;;;;;;6.80;99.90;;;;;;5448926;26;19936;-72
2024/04/22 05:02:38;;;;;;;;;;;6.80;99.90;;;;;;5450639;26;19957;-74
2024/04/22 05:05:04;;;;;;;;;;;6.80;99.90;;;;;;5418819;26;19932;-73
2024/04/22 05:07:31;;;;;;;;;;;6.90;99.90;;;;;;5450886;26;19956;-73
2024/04/22 05:09:56;;;;;;;;;;;6.90;99.90;;;;;;5448882;26;19925;-73
2024/04/22 05:12:22;;;;;;;;;;;7.00;99.90;;;;;;5418810;26;19932;-72
2024/04/22 05:14:47;;;;;;;;;;;7.00;99.90;;;;;;5448951;26;19953;-73
2024/04/22 05:17:13;;;;;;;;;;;7.10;99.90;;;;;;5448706;26;19924;-72
2024/04/22 05:19:38;;;;;;;;;;;7.20;99.90;;;;;;5450850;26;19933;-73
2024/04/22 05:22:04;;;;;;;;;;;7.30;99.90;;;;;;5450832;26;20442;-73
2024/04/22 05:24:29;;;;;;;;;;;7.50;99.90;;;;;;5448001;26;19924;-72
2024/04/22 05:26:55;;;;;;;;;;;7.60;99.90;;;;;;5447755;26;19931;-72
2024/04/22 05:29:20;;;;;;;;;;;7.60;99.90;;;;;;5418774;26;19925;-74
2024/04/22 05:31:46;;;;;;;;;;;7.70;99.90;;;;;;5448602;26;19948;-74
2024/04/22 05:36:56;;;;;;;;;;;7.90;99.90;;;;;;5450553;26;20273;-74
2024/04/22 05:39:21;;;;;;;;;;;7.90;99.90;;;;;;5450419;26;19924;-72
2024/04/22 05:41:47;;;;;;;;;;;7.90;99.90;;;;;;5450097;26;20565;-73
2024/04/22 05:44:15;;;;;;;;;;;7.90;99.90;;;;;;5447908;26;20025;-74
2024/04/22 05:46:41;;;;;;;;;;;8.10;99.90;;;;;;5450426;26;19956;-74
2024/04/22 05:49:07;;;;;;;;;;;8.30;99.90;;;;;;5418557;26;19925;-73
2024/04/22 05:51:32;;;;;;;;;;;8.70;99.90;;;;;;5450231;26;19932;-74
2024/04/22 05:53:58;;;;;;;;;;;9.00;99.90;;;;;;5418379;26;20698;-73
2024/04/22 05:56:24;;;;;;;;;;;9.50;99.90;;;;;;5448143;26;19924;-74
2024/04/22 05:58:50;;;;;;;;;;;10.30;99.90;;;;;;5442838;26;19932;-73
2024/04/22 06:01:15;;;;;;;;;;;11.30;99.90;;;;;;5449819;26;20585;-72
2024/04/22 06:03:41;;;;;;;;;;;12.40;99.90;;;;;;5448187;26;19925;-73
2024/04/22 06:06:07;;;;;;;;;;;13.60;99.90;;;;;;5449840;26;19924;-73
2024/04/22 06:08:32;;;;;;;;;;;14.60;99.90;;;;;;5448511;26;19925;-73
2024/04/22 06:10:58;;;;;;;;;;;15.20;99.90;;;;;;5447772;26;20264;-73
2024/04/22 06:13:24;;;;;;;;;;;15.70;93.80;;;;;;5448531;26;19924;-73
2024/04/22 06:15:49;;;;;;;;;;;15.40;92.10;;;;;;5417983;26;20372;-74
2024/04/22 06:18:15;;;;;;;;;;;14.70;95.30;;;;;;5450044;26;20277;-73
2024/04/22 06:20:40;;;;;;;;;;;14.00;98.80;;;;;;5417922;26;19930;-73
2024/04/22 06:23:06;;;;;;;;;;;13.70;99.40;;;;;;5417937;26;19925;-72
2024/04/22 06:25:31;;;;;;;;;;;13.40;98.20;;;;;;5450087;26;19924;-72
2024/04/22 06:27:57;;;;;;;;;;;12.90;99.10;;;;;;5417574;26;19931;-72
2024/04/22 06:30:22;;;;;;;;;;;12.40;99.90;;;;;;5447620;26;20341;-74
2024/04/22 06:32:49;;;;;;;;;;;11.90;99.90;;;;;;5449100;26;20389;-73
2024/04/22 06:35:15;;;;;;;;;;;11.70;99.90;;;;;;5449335;26;19924;-73
2024/04/22 06:37:40;;;;;;;;;;;11.50;99.90;;;;;;5449302;26;19992;-73
2024/04/22 06:40:06;;;;;;;;;;;11.30;99.90;;;;;;5449232;26;19932;-73
2024/04/22 06:42:32;;;;;;;;;;;11.40;99.90;;;;;;5450004;26;19936;-73
2024/04/22 06:44:57;;;;;;;;;;;11.90;99.90;;;;;;5417124;26;19925;-73
2024/04/22 06:47:23;;;;;;;;;;;12.30;99.90;;;;;;5417687;26;19925;-74
2024/04/22 06:49:48;;;;;;;;;;;12.50;99.90;;;;;;5449539;26;19924;-74
2024/04/22 06:52:14;;;;;;;;;;;12.80;99.90;;;;;;5449520;26;20098;-74
2024/04/22 06:54:39;;;;;;;;;;;13.50;99.90;;;;;;5449283;26;20265;-71
2024/04/22 06:57:05;;;;;;;;;;;14.00;97.50;;;;;;5447061;26;20723;-75
2024/04/22 06:59:30;;;;;;;;;;;14.40;95.10;;;;;;5413859;26;19924;-75
2024/04/22 07:01:56;;;;;;;;;;;15.10;95.90;;;;;;5412734;26;19974;-73
2024/04/22 07:04:21;;;;;;;;;;;16.00;94.10;;;;;;5448680;26;19925;-74
2024/04/22 07:06:47;;;;;;;;;;;16.70;81.10;;;;;;5449031;26;19928;-74
2024/04/22 07:09:16;;;;;;;;;;;17.40;76.10;;;;;;5449286;26;20346;-75
2024/04/22 07:11:45;;;;;;;;;;;18.20;70.60;;;;;;5448964;26;19961;-74
2024/04/22 07:14:11;;;;;;;;;;;18.60;67.30;;;;;;5446798;26;19932;-74
2024/04/22 07:16:40;;;;;;;;;;;19.00;64.30;;;;;;5448785;26;19924;-75
2024/04/22 07:19:05;;;;;;;;;;;19.40;65.10;;;;;;5449005;26;19924;-74
2024/04/22 07:21:32;;;;;;;;;;;19.30;59.80;;;;;;5452011;26;19924;-74
2024/04/22 07:23:57;;;;;;;;;;;18.80;58.50;;;;;;5452448;26;19924;-75
2024/04/22 07:26:23;;;;;;;;;;;18.40;58.60;;;;;;5452332;26;20346;-75
2024/04/22 07:28:50;;;;;;;;;;;18.10;60.20;;;;;;5449812;26;20253;-74
2024/04/22 07:31:16;;;;;;;;;;;18.00;59.90;;;;;;5452404;26;19930;-75
2024/04/22 07:33:41;;;;;;;;;;;18.00;58.30;;;;;;5450769;26;19924;-75
2024/04/22 07:36:17;;;;;;;;;;;18.10;58.10;;;;;;5451826;26;19972;-74
2024/04/22 07:38:43;;;;;;;;;;;18.40;59.60;;;;;;5420314;26;19924;-74
2024/04/22 07:41:09;;;;;;;;;;;18.70;59.90;;;;;;5452046;26;19932;-74
2024/04/22 07:43:34;;;;;;;;;;;18.60;58.60;;;;;;5420002;26;19925;-74
2024/04/22 07:46:00;;;;;;;;;;;18.30;59.50;;;;;;5452039;26;19932;-75
2024/04/22 07:48:25;;;;;;;;;;;18.50;56.90;;;;;;5451982;26;19924;-75
2024/04/22 07:50:51;;;;;;;;;;;19.20;50.00;;;;;;5450156;26;20594;-74
2024/04/22 07:53:16;;;;;;;;;;;19.10;48.80;;;;;;5450073;26;20337;-75
2024/04/22 07:55:42;;;;;;;;;;;18.60;46.70;;;;;;5451722;26;20346;-74
2024/04/22 07:58:08;;;;;;;;;;;18.20;49.10;;;;;;5451964;26;19934;-74
2024/04/22 08:00:34;;;;;;;;;;;18.10;50.70;;;;;;5450206;26;20007;-75
2024/04/22 08:02:59;;;;;;;;;;;18.10;50.20;;;;;;5451774;26;19998;-74
2024/04/22 08:05:25;;;;;;;;;;;18.60;48.80;;;;;;5444290;26;19968;-74
2024/04/22 08:07:56;;;;;;;;;;;18.70;49.70;;;;;;5451527;26;19936;-74
2024/04/22 08:10:21;;;;;;;;;;;18.80;51.20;;;;;;5451590;26;19932;-74
2024/04/22 08:12:47;;;;;;;;;;;19.20;47.80;;;;;;5419623;26;20320;-74
2024/04/22 08:15:13;;;;;;;;;;;19.10;46.60;;;;;;5451521;26;20348;-75
2024/04/22 08:17:38;;;;;;;;;;;19.10;50.10;;;;;;5451512;26;20349;-75
2024/04/22 08:20:04;;;;;;;;;;;18.70;47.00;;;;;;5451373;26;20350;-75
2024/04/22 08:22:31;;;;;;;;;;;17.60;50.40;;;;;;5451337;26;20474;-74
2024/04/22 08:24:57;;;;;;;;;;;16.90;50.80;;;;;;5449545;26;19924;-74
2024/04/22 08:27:23;;;;;;;;;;;16.10;54.30;;;;;;5451443;26;19928;-74
2024/04/22 08:29:52;;;;;;;;;;;15.60;60.30;;;;;;5451504;26;19993;-74
2024/04/22 08:32:17;;;;;;;;;;;15.30;63.60;;;;;;5450181;26;19932;-73
2024/04/22 08:34:43;;;;;;;;;;;14.90;66.00;;;;;;5451207;26;19924;-74
2024/04/22 08:37:09;;;;;;;;;;;14.90;65.70;;;;;;5419455;26;19924;-74
2024/04/22 08:39:34;;;;;;;;;;;14.60;72.70;;;;;;5451171;26;19932;-74
2024/04/22 08:42:08;;;;;;;;;;;14.40;73.60;;;;;;5451286;26;19931;-73
2024/04/22 08:44:33;;;;;;;;;;;14.40;72.80;;;;;;5451322;26;20266;-73
2024/04/22 08:46:59;;;;;;;;;;;14.20;78.00;;;;;;5449532;26;19924;-73
2024/04/22 08:49:24;;;;;;;;;;;14.00;76.30;;;;;;5451233;26;20369;-74
2024/04/22 08:51:55;;;;;;;;;;;13.80;78.40;;;;;;5419207;26;19932;-74
2024/04/22 08:54:22;;;;;;;;;;;13.60;79.80;;;;;;5451162;26;20349;-73
2024/04/22 08:56:48;;;;;;;;;;;13.20;84.20;;;;;;5419163;26;19924;-74
2024/04/22 08:59:14;;;;;;;;;;;13.00;87.80;;;;;;5419337;26;20336;-73
2024/04/22 09:01:39;;;;;;;;;;;12.70;90.60;;;;;;5449349;26;20355;-74
2024/04/22 09:04:05;;;;;;;;;;;12.70;91.30;;;;;;5418970;26;19924;-73
2024/04/22 09:06:30;;;;;;;;;;;12.60;90.90;;;;;;5419135;26;20381;-72
2024/04/22 09:08:57;;;;;;;;;;;12.60;91.00;;;;;;5449151;26;19940;-72
2024/04/22 09:11:22;;;;;;;;;;;12.50;91.10;;;;;;5451070;26;19932;-74
2024/04/22 09:13:57;;;;;;;;;;;12.50;92.70;;;;;;5419418;26;20318;-74
2024/04/22 09:16:23;;;;;;;;;;;12.60;92.50;;;;;;5450888;26;19924;-73
2024/04/22 09:18:48;;;;;;;;;;;12.70;93.20;;;;;;5448864;26;19931;-74
2024/04/22 09:21:14;;;;;;;;;;;12.80;91.60;;;;;;5448647;26;20610;-74
2024/04/22 09:23:39;;;;;;;;;;;13.10;88.60;;;;;;5448362;26;20357;-74
2024/04/22 09:26:05;;;;;;;;;;;13.30;83.20;;;;;;5450567;26;20749;-73
2024/04/22 09:28:34;;;;;;;;;;;13.30;86.00;;;;;;5450867;26;19932;-73
2024/04/22 09:31:00;;;;;;;;;;;13.40;86.60;;;;;;5448752;26;19937;-74
2024/04/22 09:33:27;;;;;;;;;;;13.80;86.40;;;;;;5450156;26;19924;-73
2024/04/22 09:35:53;;;;;;;;;;;14.30;87.10;;;;;;5450220;26;20354;-73
2024/04/22 09:38:20;;;;;;;;;;;14.60;78.10;;;;;;5450310;26;19932;-73
2024/04/22 09:40:46;;;;;;;;;;;14.80;72.30;;;;;;5450075;26;19931;-73
2024/04/22 09:43:12;;;;;;;;;;;15.00;69.50;;;;;;5447585;26;19931;-74
2024/04/22 09:45:38;;;;;;;;;;;15.00;69.40;;;;;;5418171;26;20343;-73
2024/04/22 09:48:05;;;;;;;;;;;14.90;73.80;;;;;;5449941;26;20449;-73
2024/04/22 09:50:30;;;;;;;;;;;14.50;74.20;;;;;;5450279;26;20259;-73
2024/04/22 09:52:59;;;;;;;;;;;14.20;76.60;;;;;;5450087;26;20357;-73
2024/04/22 09:55:24;;;;;;;;;;;14.00;77.30;;;;;;5418090;26;20365;-73
2024/04/22 09:57:53;;;;;;;;;;;13.60;83.50;;;;;;5449760;26;19930;-75
2024/04/22 10:00:18;;;;;;;;;;;13.60;87.20;;;;;;5450033;26;19998;-72
2024/04/22 10:02:44;;;;;;;;;;;13.50;85.80;;;;;;5450573;26;19932;-72
2024/04/22 10:05:10;;;;;;;;;;;13.50;82.60;;;;;;5447814;26;19936;-74
2024/04/22 10:07:38;;;;;;;;;;;13.40;86.00;;;;;;5418345;26;19952;-72
2024/04/22 10:10:07;;;;;;;;;;;13.50;85.70;;;;;;5448500;26;20372;-71
2024/04/22 10:12:32;;;;;;;;;;;13.40;84.30;;;;;;5448168;26;19925;-73
2024/04/22 10:15:11;;;;;;;;;;;13.30;85.00;;;;;;5449970;26;19931;-73
2024/04/22 10:17:37;;;;;;;;;;;13.20;81.90;;;;;;5449928;26;19924;-73
2024/04/22 10:20:03;;;;;;;;;;;13.00;86.70;;;;;;5449840;26;19961;-72
2024/04/22 10:22:33;;;;;;;;;;;12.80;92.00;;;;;;5449958;26;19931;-73
2024/04/22 10:25:02;;;;;;;;;;;12.60;93.50;;;;;;5449637;26;19933;-74
2024/04/22 10:27:28;;;;;;;;;;;12.50;94.80;;;;;;5447514;26;20439;-73
2024/04/22 10:29:53;;;;;;;;;;;12.40;97.00;;;;;;5449638;26;19932;-73
2024/04/22 10:32:19;;;;;;;;;;;12.20;97.80;;;;;;5449845;26;19936;-72
2024/04/22 10:34:45;;;;;;;;;;;12.10;99.20;;;;;;5411867;26;19925;-74
2024/04/22 10:37:10;;;;;;;;;;;11.90;99.90;;;;;;5413594;26;19925;-73
2024/04/22 10:39:36;;;;;;;;;;;11.70;99.90;;;;;;5411647;26;20349;-73
2024/04/22 10:42:02;;;;;;;;;;;11.70;99.90;;;;;;5411719;26;20359;-73
2024/04/22 10:44:27;;;;;;;;;;;11.50;99.90;;;;;;5413394;26;19931;-73
2024/04/22 10:46:54;;;;;;;;;;;11.50;99.90;;;;;;5413482;26;20266;-72
2024/04/22 10:49:19;;;;;;;;;;;11.50;99.90;;;;;;5411502;26;19987;-72
2024/04/22 10:51:45;;;;;;;;;;;11.50;99.90;;;;;;5411506;26;19925;-75
2024/04/22 10:54:11;;;;;;;;;;;11.50;99.90;;;;;;5413577;26;19933;-73
2024/04/22 10:56:37;;;;;;;;;;;11.50;99.90;;;;;;5415037;26;20422;-72
2024/04/22 10:59:02;;;;;;;;;;;11.60;99.90;;;;;;5414649;26;20362;-73
2024/04/22 11:01:28;;;;;;;;;;;11.80;99.90;;;;;;5407689;26;19925;-73
2024/04/22 11:03:55;;;;;;;;;;;12.00;99.90;;;;;;5415368;26;20421;-73
2024/04/22 11:06:20;;;;;;;;;;;12.10;99.90;;;;;;5414746;26;19990;-73
2024/04/22 11:08:46;;;;;;;;;;;12.20;99.90;;;;;;5416517;26;19933;-72
2024/04/22 11:11:12;;;;;;;;;;;12.20;99.90;;;;;;5414575;26;19933;-72
2024/04/22 11:13:38;;;;;;;;;;;12.10;99.90;;;;;;5416548;26;19944;-72
2024/04/22 11:16:07;;;;;;;;;;;11.90;99.90;;;;;;5416127;26;19925;-74
2024/04/22 11:18:32;;;;;;;;;;;11.60;99.90;;;;;;5416432;26;19925;-75
2024/04/22 11:20:58;;;;;;;;;;;11.30;99.90;;;;;;5414146;26;20261;-74
2024/04/22 11:23:24;;;;;;;;;;;11.00;99.90;;;;;;5415610;26;20271;-72
2024/04/22 11:25:49;;;;;;;;;;;10.70;99.90;;;;;;5415117;26;20580;-72
2024/04/22 11:28:15;;;;;;;;;;;10.50;99.90;;;;;;5415904;26;20265;-73
2024/04/22 11:30:44;;;;;;;;;;;10.40;99.90;;;;;;5415877;26;19925;-71
2024/04/22 11:33:28;;;;;;;;;;;10.50;99.90;;;;;;5415378;26;19932;-74
2024/04/22 11:35:54;;;;;;;;;;;10.60;99.90;;;;;;5413989;26;19925;-75
2024/04/22 11:38:23;;;;;;;;;;;10.60;99.90;;;;;;5415825;26;19935;-71
2024/04/22 11:40:49;;;;;;;;;;;10.70;99.90;;;;;;5414057;26;19929;-74
2024/04/22 11:43:15;;;;;;;;;;;10.80;99.90;;;;;;5413287;26;19932;-74
2024/04/22 11:45:40;;;;;;;;;;;10.80;99.90;;;;;;5415998;26;20366;-72
2024/04/22 11:48:06;;;;;;;;;;;10.80;99.90;;;;;;5416063;26;19926;-72
2024/04/22 11:50:31;;;;;;;;;;;10.80;99.90;;;;;;5416159;26;19925;-73
2024/04/22 11:52:57;;;;;;;;;;;10.60;99.90;;;;;;5416401;26;19932;-74
2024/04/22 11:55:23;;;;;;;;;;;10.50;99.90;;;;;;5416034;26;19932;-74
2024/04/22 11:57:48;;;;;;;;;;;10.30;99.90;;;;;;5415580;26;20366;-73
2024/04/22 12:00:14;;;;;;;;;;;10.30;99.90;;;;;;5415278;26;20439;-72
2024/04/22 12:02:39;;;;;;;;;;;10.20;99.90;;;;;;5408274;26;20433;-73
2024/04/22 12:05:09;;;;;;;;;;;10.00;99.90;;;;;;5415643;26;19939;-73
2024/04/22 12:07:36;;;;;;;;;;;10.00;99.90;;;;;;5413748;26;19957;-73
2024/04/22 12:10:05;;;;;;;;;;;9.90;99.90;;;;;;5415702;26;19934;-75
2024/04/22 12:12:30;;;;;;;;;;;10.00;99.90;;;;;;5413944;26;19924;-73
2024/04/22 12:14:56;;;;;;;;;;;9.90;99.90;;;;;;5413795;26;19953;-74
2024/04/22 12:17:23;;;;;;;;;;;9.90;99.90;;;;;;5415213;26;19932;-73
2024/04/22 12:19:50;;;;;;;;;;;9.90;99.90;;;;;;5413589;26;19932;-73
2024/04/22 12:22:15;;;;;;;;;;;9.90;99.90;;;;;;5413509;26;19939;-74
2024/04/22 12:24:41;;;;;;;;;;;10.00;99.90;;;;;;5415562;26;20565;-74
2024/04/22 12:27:06;;;;;;;;;;;10.00;99.90;;;;;;5413591;26;20279;-74
2024/04/22 12:29:32;;;;;;;;;;;10.10;99.90;;;;;;5413494;26;19936;-73
2024/04/22 12:31:58;;;;;;;;;;;10.20;99.90;;;;;;5415527;26;19925;-74
2024/04/22 12:34:24;;;;;;;;;;;10.40;99.90;;;;;;5431347;26;19924;-73
2024/04/22 12:36:49;;;;;;;;;;;10.60;99.90;;;;;;5450671;26;19924;-73
2024/04/22 12:39:15;;;;;;;;;;;10.80;99.90;;;;;;5449313;26;20369;-73
2024/04/22 12:41:40;;;;;;;;;;;10.90;99.90;;;;;;5419019;26;19928;-73
2024/04/22 12:44:06;;;;;;;;;;;10.90;99.90;;;;;;5449093;26;19924;-74
2024/04/22 12:46:40;;;;;;;;;;;10.90;99.90;;;;;;5419323;26;19924;-73
2024/04/22 12:51:51;;;;;;;;;;;11.00;99.90;;;;;;5450842;26;19931;-73
2024/04/22 12:54:16;;;;;;;;;;;11.30;99.90;;;;;;5451114;26;19924;-73
2024/04/22 12:56:42;;;;;;;;;;;11.60;99.90;;;;;;5448978;26;19924;-74
2024/04/22 12:59:07;;;;;;;;;;;12.00;99.90;;;;;;5450700;26;20505;-73
2024/04/22 13:01:34;;;;;;;;;;;12.20;99.90;;;;;;5450965;26;19932;-74
2024/04/22 13:04:00;;;;;;;;;;;12.30;99.90;;;;;;5443490;26;19931;-74
2024/04/22 13:06:25;;;;;;;;;;;12.40;99.90;;;;;;5450610;26;19925;-74
2024/04/22 13:08:51;;;;;;;;;;;12.30;99.90;;;;;;5448588;26;20501;-74
2024/04/22 13:11:21;;;;;;;;;;;12.30;99.90;;;;;;5448543;26;20342;-73
2024/04/22 13:13:46;;;;;;;;;;;12.40;99.90;;;;;;5418700;26;19941;-73
2024/04/22 13:16:12;;;;;;;;;;;12.40;99.90;;;;;;5450264;26;19925;-73
2024/04/22 13:18:37;;;;;;;;;;;12.40;99.90;;;;;;5449855;26;19925;-73
2024/04/22 13:21:03;;;;;;;;;;;12.70;99.90;;;;;;5447116;26;19925;-74
2024/04/22 13:23:28;;;;;;;;;;;12.90;99.60;;;;;;5418993;26;19925;-75
2024/04/22 13:25:54;;;;;;;;;;;13.10;99.90;;;;;;5449208;26;19936;-74
2024/04/22 13:28:19;;;;;;;;;;;13.20;99.90;;;;;;5418890;26;19932;-73
2024/04/22 13:30:47;;;;;;;;;;;13.20;99.90;;;;;;5448818;26;19924;-73
2024/04/22 13:33:12;;;;;;;;;;;13.20;99.90;;;;;;5450819;26;19994;-74
2024/04/22 13:35:38;;;;;;;;;;;13.10;99.90;;;;;;5418930;26;19932;-74
2024/04/22 13:38:03;;;;;;;;;;;12.90;99.90;;;;;;5418871;26;19924;-74
2024/04/22 13:40:29;;;;;;;;;;;12.70;99.40;;;;;;5418634;26;19924;-73
2024/04/22 13:42:54;;;;;;;;;;;12.60;99.90;;;;;;5450026;26;19937;-74
2024/04/22 13:45:20;;;;;;;;;;;12.30;99.90;;;;;;5417100;26;19993;-73
2024/04/22 13:47:46;;;;;;;;;;;12.20;99.90;;;;;;5448044;26;19933;-73
2024/04/22 13:50:12;;;;;;;;;;;12.10;99.90;;;;;;5449900;26;19924;-73
2024/04/22 13:52:38;;;;;;;;;;;12.20;99.90;;;;;;5448113;26;19933;-73
2024/04/22 13:55:04;;;;;;;;;;;12.20;99.90;;;;;;5449832;26;20697;-73
2024/04/22 13:57:33;;;;;;;;;;;12.20;99.90;;;;;;5418173;26;19932;-74
2024/04/22 13:59:58;;;;;;;;;;;12.30;99.90;;;;;;5449790;26;19924;-75
2024/04/22 14:02:24;;;;;;;;;;;12.30;99.90;;;;;;5449898;26;19960;-74
2024/04/22 14:04:49;;;;;;;;;;;12.20;99.90;;;;;;5449810;26;19924;-74
2024/04/22 14:07:15;;;;;;;;;;;12.10;99.50;;;;;;5449963;26;20422;-73
2024/04/22 14:09:42;;;;;;;;;;;12.10;99.90;;;;;;5450221;26;19932;-74
2024/04/22 14:12:07;;;;;;;;;;;12.10;99.90;;;;;;5450126;26;19998;-73
2024/04/22 14:14:33;;;;;;;;;;;12.00;99.90;;;;;;5448100;26;19924;-72
2024/04/22 14:16:58;;;;;;;;;;;12.00;99.90;;;;;;5447373;26;19948;-73
2024/04/22 14:19:24;;;;;;;;;;;12.00;99.90;;;;;;5447118;26;19925;-74
2024/04/22 14:21:49;;;;;;;;;;;12.10;99.90;;;;;;5449505;26;19925;-74
2024/04/22 14:24:16;;;;;;;;;;;12.10;99.90;;;;;;5450016;26;20424;-75
2024/04/22 14:26:41;;;;;;;;;;;12.10;99.90;;;;;;5449660;26;19931;-74